createdAt,value
2018-04-16T00:00:42.506Z,6.30
2018-04-16T00:01:42.547Z,7.20
2018-04-16T00:02:42.581Z,6.00
2018-04-16T00:03:42.620Z,6.40
2018-04-16T00:04:42.759Z,6.00
2018-04-16T00:05:42.695Z,6.20
2018-04-16T00:06:42.731Z,6.20
2018-04-16T00:07:42.771Z,6.80
2018-04-16T00:08:42.810Z,5.30
2018-04-16T00:09:42.844Z,5.40
2018-04-16T00:10:42.888Z,5.40
2018-04-16T00:11:42.920Z,5.80
2018-04-16T00:12:42.967Z,6.80
2018-04-16T00:13:42.995Z,6.90
2018-04-16T00:14:43.031Z,5.40
2018-04-16T00:15:43.071Z,7.00
2018-04-16T00:16:43.108Z,5.30
2018-04-16T00:17:43.147Z,5.30
2018-04-16T00:18:43.220Z,7.20
2018-04-16T00:19:43.223Z,6.50
2018-04-16T00:20:43.257Z,6.60
2018-04-16T00:21:43.294Z,8.40
2018-04-16T00:22:43.331Z,6.10
2018-04-16T00:23:43.371Z,6.10
2018-04-16T00:24:43.405Z,7.20
2018-04-16T00:25:43.445Z,7.30
2018-04-16T00:26:43.480Z,6.80
2018-04-16T00:27:43.521Z,6.00
2018-04-16T00:28:43.555Z,6.30
2018-04-16T00:29:43.591Z,7.30
2018-04-16T00:30:43.630Z,7.80
2018-04-16T00:31:43.667Z,5.70
2018-04-16T00:32:43.704Z,7.50
2018-04-16T00:33:43.747Z,7.10
2018-04-16T00:34:43.779Z,7.80
2018-04-16T00:35:43.817Z,5.70
2018-04-16T00:36:43.854Z,8.20
2018-04-16T00:37:43.894Z,6.40
2018-04-16T00:38:43.937Z,7.80
2018-04-16T00:39:43.967Z,7.60
2018-04-16T00:40:44.004Z,6.50
2018-04-16T00:41:44.050Z,6.50
2018-04-16T00:42:44.080Z,6.60
2018-04-16T00:43:44.116Z,7.60
2018-04-16T00:44:44.158Z,6.50
2018-04-16T00:45:44.192Z,8.20
2018-04-16T00:46:44.230Z,7.50
2018-04-16T00:47:44.268Z,7.20
2018-04-16T00:48:44.309Z,6.60
2018-04-16T00:49:44.344Z,7.30
2018-04-16T00:50:44.380Z,9.20
2018-04-16T00:51:44.417Z,7.30
2018-04-16T00:52:44.457Z,8.00
2018-04-16T00:53:44.495Z,7.40
2018-04-16T00:54:44.531Z,7.90
2018-04-16T00:55:44.569Z,6.70
2018-04-16T00:56:44.605Z,7.40
2018-04-16T00:57:44.649Z,6.80
2018-04-16T00:58:44.680Z,8.70
2018-04-16T00:59:44.718Z,8.00
2018-04-16T01:00:44.757Z,7.10
2018-04-16T01:01:44.829Z,7.70
2018-04-16T01:02:44.828Z,6.80
2018-04-16T01:03:44.867Z,7.60
2018-04-16T01:04:44.906Z,8.50
2018-04-16T01:05:44.943Z,7.50
2018-04-16T01:06:44.985Z,7.10
2018-04-16T01:07:45.017Z,7.30
2018-04-16T01:08:45.057Z,7.80
2018-04-16T01:09:45.094Z,7.00
2018-04-16T01:10:45.129Z,7.60
2018-04-16T01:11:45.167Z,7.80
2018-04-16T01:12:45.204Z,7.60
2018-04-16T01:13:45.242Z,7.50
2018-04-16T01:14:45.280Z,8.00
2018-04-16T01:15:45.317Z,8.50
2018-04-16T01:16:45.355Z,7.40
2018-04-16T01:17:45.391Z,8.30
2018-04-16T01:18:45.429Z,9.40
2018-04-16T01:19:45.464Z,7.40
2018-04-16T01:20:45.515Z,7.60
2018-04-16T01:21:45.545Z,7.20
2018-04-16T01:22:45.577Z,9.40
2018-04-16T01:23:45.615Z,8.00
2018-04-16T01:24:45.660Z,8.00
2018-04-16T01:25:45.694Z,9.20
2018-04-16T01:26:45.727Z,9.80
2018-04-16T01:27:45.770Z,8.20
2018-04-16T01:28:45.801Z,7.80
2018-04-16T01:29:45.845Z,8.60
2018-04-16T01:30:45.876Z,8.00
2018-04-16T01:31:45.915Z,6.50
2018-04-16T01:32:45.954Z,6.50
2018-04-16T01:33:45.989Z,9.40
2018-04-16T01:34:46.025Z,7.00
2018-04-16T01:35:46.064Z,7.70
2018-04-16T01:36:46.100Z,6.70
2018-04-16T01:37:46.142Z,7.60
2018-04-16T01:38:46.175Z,6.80
2018-04-16T01:39:46.222Z,8.30
2018-04-16T01:40:46.251Z,7.80
2018-04-16T01:41:46.286Z,9.20
2018-04-16T01:42:46.322Z,6.90
2018-04-16T01:43:46.359Z,7.00
2018-04-16T01:44:46.396Z,8.70
2018-04-16T01:45:46.433Z,9.50
2018-04-16T01:46:46.471Z,6.90
2018-04-16T01:47:46.509Z,7.20
2018-04-16T01:48:46.561Z,6.70
2018-04-16T01:49:46.584Z,6.10
2018-04-16T01:50:46.621Z,8.40
2018-04-16T01:51:46.668Z,6.80
2018-04-16T01:52:46.695Z,8.10
2018-04-16T01:53:46.732Z,8.00
2018-04-16T01:54:46.778Z,6.50
2018-04-16T01:55:46.806Z,7.10
2018-04-16T01:56:46.853Z,8.80
2018-04-16T01:57:46.880Z,5.70
2018-04-16T01:58:46.917Z,5.90
2018-04-16T01:59:46.954Z,8.00
2018-04-16T02:00:46.993Z,6.70
2018-04-16T02:01:47.038Z,7.20
2018-04-16T02:02:47.064Z,5.40
2018-04-16T02:03:47.102Z,6.10
2018-04-16T02:04:47.139Z,7.10
2018-04-16T02:05:47.176Z,8.20
2018-04-16T02:06:47.213Z,6.80
2018-04-16T02:07:47.256Z,8.50
2018-04-16T02:08:47.288Z,7.20
2018-04-16T02:09:47.327Z,7.70
2018-04-16T02:10:47.360Z,7.60
2018-04-16T02:11:47.401Z,7.70
2018-04-16T02:12:47.436Z,7.60
2018-04-16T02:13:47.476Z,7.00
2018-04-16T02:14:47.509Z,6.80
2018-04-16T02:15:47.552Z,6.90
2018-04-16T02:16:47.585Z,8.40
2018-04-16T02:17:47.623Z,6.80
2018-04-16T02:18:47.658Z,8.50
2018-04-16T02:19:47.697Z,7.10
2018-04-16T02:20:47.737Z,8.90
2018-04-16T02:21:47.771Z,7.60
2018-04-16T02:22:47.809Z,7.00
2018-04-16T02:23:47.844Z,8.20
2018-04-16T02:24:47.887Z,6.90
2018-04-16T02:25:47.923Z,7.30
2018-04-16T02:26:47.958Z,8.10
2018-04-16T02:27:47.993Z,10.40
2018-04-16T02:28:48.034Z,8.60
2018-04-16T02:29:48.066Z,9.10
2018-04-16T02:30:48.105Z,12.20
2018-04-16T02:31:48.144Z,13.60
2018-04-16T02:32:48.181Z,15.00
2018-04-16T02:33:48.217Z,13.70
2018-04-16T02:34:48.253Z,16.60
2018-04-16T02:35:48.289Z,13.90
2018-04-16T02:36:48.329Z,13.40
2018-04-16T02:37:48.364Z,13.90
2018-04-16T02:38:48.399Z,14.00
2018-04-16T02:39:48.446Z,15.20
2018-04-16T02:40:48.485Z,18.50
2018-04-16T02:41:48.511Z,22.40
2018-04-16T02:42:48.547Z,20.90
2018-04-16T02:43:48.584Z,21.30
2018-04-16T02:44:48.629Z,19.70
2018-04-16T02:45:48.659Z,19.50
2018-04-16T02:46:48.697Z,20.40
2018-04-16T02:47:48.730Z,19.10
2018-04-16T02:48:48.770Z,21.30
2018-04-16T02:49:48.805Z,19.90
2018-04-16T02:50:48.841Z,23.60
2018-04-16T02:51:48.875Z,20.40
2018-04-16T02:52:48.913Z,22.00
2018-04-16T02:53:49.003Z,24.10
2018-04-16T02:54:48.985Z,22.10
2018-04-16T02:55:49.021Z,23.30
2018-04-16T02:56:49.059Z,23.80
2018-04-16T02:57:49.096Z,25.80
2018-04-16T02:58:49.141Z,23.60
2018-04-16T02:59:49.170Z,24.40
2018-04-16T03:00:49.212Z,25.80
2018-04-16T03:01:49.243Z,28.20
2018-04-16T03:02:49.278Z,27.90
2018-04-16T03:03:49.314Z,27.90
2018-04-16T03:04:49.354Z,28.40
2018-04-16T03:05:49.389Z,27.00
2018-04-16T03:06:49.431Z,29.80
2018-04-16T03:07:49.461Z,31.00
2018-04-16T03:08:49.500Z,29.20
2018-04-16T03:09:49.537Z,33.20
2018-04-16T03:10:49.569Z,33.20
2018-04-16T03:11:49.606Z,31.50
2018-04-16T03:12:49.643Z,32.20
2018-04-16T03:13:49.680Z,26.80
2018-04-16T03:14:49.715Z,25.50
2018-04-16T03:15:49.755Z,32.50
2018-04-16T03:16:49.787Z,35.00
2018-04-16T03:17:49.826Z,32.80
2018-04-16T03:18:49.863Z,33.20
2018-04-16T03:19:49.899Z,30.10
2018-04-16T03:20:49.949Z,35.40
2018-04-16T03:21:49.972Z,31.70
2018-04-16T03:22:50.008Z,36.40
2018-04-16T03:23:50.048Z,37.30
2018-04-16T03:24:50.081Z,35.20
2018-04-16T03:25:50.123Z,37.20
2018-04-16T03:26:50.163Z,32.10
2018-04-16T03:27:50.191Z,32.30
2018-04-16T03:28:50.232Z,33.50
2018-04-16T03:29:50.268Z,29.10
2018-04-16T03:30:50.304Z,26.20
2018-04-16T03:31:50.336Z,33.70
2018-04-16T03:32:50.374Z,32.00
2018-04-16T03:33:50.421Z,26.40
2018-04-16T03:34:50.448Z,25.30
2018-04-16T03:35:50.483Z,28.50
2018-04-16T03:36:50.521Z,25.30
2018-04-16T03:37:50.557Z,29.00
2018-04-16T03:38:50.592Z,29.00
2018-04-16T03:39:50.629Z,28.10
2018-04-16T03:40:50.667Z,28.40
2018-04-16T03:41:50.702Z,35.00
2018-04-16T03:42:50.737Z,30.20
2018-04-16T03:43:50.776Z,36.80
2018-04-16T03:44:50.811Z,33.40
2018-04-16T03:45:50.849Z,32.70
2018-04-16T03:46:50.885Z,30.00
2018-04-16T03:47:50.922Z,28.70
2018-04-16T03:48:50.961Z,28.40
2018-04-16T03:49:50.995Z,29.80
2018-04-16T03:50:51.031Z,30.10
2018-04-16T03:51:51.066Z,27.10
2018-04-16T03:52:51.105Z,29.50
2018-04-16T03:53:51.140Z,27.50
2018-04-16T03:54:51.177Z,31.10
2018-04-16T03:55:51.213Z,27.50
2018-04-16T03:56:51.250Z,28.80
2018-04-16T03:57:51.387Z,30.60
2018-04-16T03:58:51.321Z,26.60
2018-04-16T03:59:51.365Z,30.60
2018-04-16T04:00:51.396Z,32.90
2018-04-16T04:01:51.433Z,26.30
2018-04-16T04:02:51.469Z,27.20
2018-04-16T04:03:51.515Z,26.00
2018-04-16T04:04:51.544Z,37.50
2018-04-16T04:05:51.579Z,29.50
2018-04-16T04:06:51.616Z,30.10
2018-04-16T04:07:51.652Z,28.60
2018-04-16T04:08:51.700Z,26.90
2018-04-16T04:09:51.727Z,34.10
2018-04-16T04:10:51.763Z,34.80
2018-04-16T04:11:51.800Z,39.10
2018-04-16T04:12:51.837Z,38.50
2018-04-16T04:13:51.874Z,42.40
2018-04-16T04:14:51.909Z,35.20
2018-04-16T04:15:51.946Z,34.30
2018-04-16T04:16:51.986Z,38.90
2018-04-16T04:17:52.066Z,38.20
2018-04-16T04:18:52.055Z,36.10
2018-04-16T04:19:52.092Z,33.50
2018-04-16T04:20:52.129Z,32.90
2018-04-16T04:21:52.167Z,33.90
2018-04-16T04:22:52.201Z,28.00
2018-04-16T04:23:52.237Z,30.10
2018-04-16T04:24:52.276Z,31.40
2018-04-16T04:25:52.320Z,29.90
2018-04-16T04:26:52.347Z,32.60
2018-04-16T04:27:52.386Z,33.70
2018-04-16T04:28:52.423Z,31.60
2018-04-16T04:29:52.458Z,28.70
2018-04-16T04:30:52.496Z,30.40
2018-04-16T04:31:52.536Z,37.50
2018-04-16T04:32:52.569Z,37.50
2018-04-16T04:33:52.605Z,31.00
2018-04-16T04:34:52.641Z,31.50
2018-04-16T04:35:52.678Z,30.30
2018-04-16T04:36:52.714Z,29.30
2018-04-16T04:37:52.753Z,29.90
2018-04-16T04:38:52.794Z,29.50
2018-04-16T04:39:52.824Z,29.00
2018-04-16T04:40:52.859Z,34.00
2018-04-16T04:41:52.896Z,36.60
2018-04-16T04:42:52.932Z,32.40
2018-04-16T04:43:52.977Z,31.70
2018-04-16T04:44:53.006Z,31.60
2018-04-16T04:45:53.044Z,31.70
2018-04-16T04:46:53.095Z,33.90
2018-04-16T04:47:53.115Z,40.00
2018-04-16T04:48:53.154Z,37.40
2018-04-16T04:49:53.189Z,37.60
2018-04-16T04:50:53.228Z,40.90
2018-04-16T04:51:53.261Z,41.90
2018-04-16T04:52:53.297Z,48.70
2018-04-16T04:53:53.333Z,45.30
2018-04-16T04:54:53.369Z,42.90
2018-04-16T04:55:53.406Z,41.20
2018-04-16T04:56:53.442Z,46.80
2018-04-16T04:57:53.480Z,42.60
2018-04-16T04:58:53.515Z,47.00
2018-04-16T04:59:53.550Z,44.60
2018-04-16T05:00:53.632Z,43.60
2018-04-16T05:01:53.627Z,42.90
2018-04-16T05:02:53.659Z,46.80
2018-04-16T05:03:53.701Z,45.90
2018-04-16T05:04:53.732Z,48.50
2018-04-16T05:05:53.770Z,43.50
2018-04-16T05:06:53.810Z,40.20
2018-04-16T05:07:53.842Z,40.60
2018-04-16T05:08:53.882Z,38.20
2018-04-16T05:09:53.916Z,35.00
2018-04-16T05:10:53.949Z,35.30
2018-04-16T05:11:53.986Z,32.90
2018-04-16T05:12:54.032Z,33.30
2018-04-16T05:13:54.062Z,34.80
2018-04-16T05:14:54.098Z,30.70
2018-04-16T05:15:54.130Z,28.90
2018-04-16T05:16:54.170Z,30.80
2018-04-16T05:17:54.255Z,32.20
2018-04-16T05:18:54.241Z,33.00
2018-04-16T05:19:54.276Z,29.40
2018-04-16T05:20:54.313Z,27.90
2018-04-16T05:21:54.351Z,25.50
2018-04-16T05:22:54.385Z,27.80
2018-04-16T05:23:54.429Z,28.60
2018-04-16T05:24:54.458Z,23.10
2018-04-16T05:25:54.496Z,26.70
2018-04-16T05:26:54.532Z,25.80
2018-04-16T05:27:54.568Z,26.70
2018-04-16T05:28:54.605Z,29.90
2018-04-16T05:29:54.643Z,29.70
2018-04-16T05:30:54.679Z,32.90
2018-04-16T05:31:54.719Z,29.20
2018-04-16T05:32:54.752Z,33.40
2018-04-16T05:33:54.787Z,35.60
2018-04-16T05:34:54.825Z,33.10
2018-04-16T05:35:54.865Z,31.30
2018-04-16T05:36:54.898Z,33.30
2018-04-16T05:37:54.935Z,28.50
2018-04-16T05:38:54.982Z,33.00
2018-04-16T05:39:55.010Z,28.10
2018-04-16T05:40:55.044Z,31.50
2018-04-16T05:41:55.132Z,33.50
2018-04-16T05:42:55.118Z,29.90
2018-04-16T05:43:55.156Z,31.60
2018-04-16T05:44:55.191Z,29.40
2018-04-16T05:45:55.238Z,30.70
2018-04-16T05:46:55.265Z,27.40
2018-04-16T05:47:55.301Z,27.40
2018-04-16T05:48:55.345Z,28.50
2018-04-16T05:49:55.377Z,25.40
2018-04-16T05:50:55.413Z,24.00
2018-04-16T05:51:55.449Z,23.10
2018-04-16T05:52:55.492Z,21.30
2018-04-16T05:53:55.523Z,22.10
2018-04-16T05:54:55.567Z,21.80
2018-04-16T05:55:55.595Z,25.10
2018-04-16T05:56:55.633Z,22.10
2018-04-16T05:57:55.678Z,22.50
2018-04-16T05:58:55.713Z,24.80
2018-04-16T05:59:55.752Z,22.70
2018-04-16T06:00:55.780Z,19.80
2018-04-16T06:01:55.817Z,21.30
2018-04-16T06:02:55.857Z,18.60
2018-04-16T06:03:55.895Z,18.30
2018-04-16T06:04:55.928Z,20.00
2018-04-16T06:05:55.965Z,17.80
2018-04-16T06:06:56.003Z,19.20
2018-04-16T06:07:56.040Z,17.70
2018-04-16T06:08:56.077Z,18.50
2018-04-16T06:09:56.114Z,17.30
2018-04-16T06:10:56.153Z,17.60
2018-04-16T06:11:56.189Z,18.30
2018-04-16T06:12:56.225Z,20.50
2018-04-16T06:13:56.263Z,17.70
2018-04-16T06:14:56.300Z,24.00
2018-04-16T06:15:56.338Z,17.20
2018-04-16T06:16:56.375Z,15.90
2018-04-16T06:17:56.421Z,16.70
2018-04-16T06:18:56.448Z,15.60
2018-04-16T06:19:56.488Z,17.90
2018-04-16T06:20:56.524Z,17.30
2018-04-16T06:21:56.572Z,14.30
2018-04-16T06:22:56.600Z,15.00
2018-04-16T06:23:56.636Z,14.20
2018-04-16T06:24:56.674Z,15.10
2018-04-16T06:25:56.716Z,16.10
2018-04-16T06:26:56.747Z,15.50
2018-04-16T06:27:56.792Z,15.10
2018-04-16T06:28:56.824Z,18.50
2018-04-16T06:29:56.869Z,16.80
2018-04-16T06:30:56.898Z,16.00
2018-04-16T06:31:56.937Z,16.00
2018-04-16T06:32:56.973Z,16.90
2018-04-16T06:33:57.011Z,17.70
2018-04-16T06:34:57.047Z,15.30
2018-04-16T06:35:57.086Z,15.60
2018-04-16T06:36:57.136Z,17.30
2018-04-16T06:37:57.163Z,20.30
2018-04-16T06:38:57.199Z,16.80
2018-04-16T06:39:57.236Z,17.30
2018-04-16T06:40:57.276Z,18.40
2018-04-16T06:41:57.314Z,18.30
2018-04-16T06:42:57.353Z,18.50
2018-04-16T06:43:57.388Z,17.10
2018-04-16T06:44:57.425Z,17.60
2018-04-16T06:45:57.470Z,17.90
2018-04-16T06:46:57.501Z,16.90
2018-04-16T06:47:57.545Z,17.30
2018-04-16T06:48:57.581Z,15.80
2018-04-16T06:49:57.616Z,16.50
2018-04-16T06:50:57.651Z,16.10
2018-04-16T06:51:57.690Z,19.60
2018-04-16T06:52:57.730Z,18.40
2018-04-16T06:53:57.767Z,17.40
2018-04-16T06:54:57.806Z,17.80
2018-04-16T06:55:57.845Z,17.40
2018-04-16T06:56:57.882Z,18.60
2018-04-16T06:57:57.926Z,19.70
2018-04-16T06:58:57.958Z,21.90
2018-04-16T06:59:57.995Z,16.20
2018-04-16T07:00:58.034Z,17.30
2018-04-16T07:01:58.090Z,14.20
2018-04-16T07:02:58.113Z,13.10
2018-04-16T07:03:58.155Z,12.90
2018-04-16T07:04:58.187Z,13.10
2018-04-16T07:05:58.225Z,12.80
2018-04-16T07:06:58.269Z,11.60
2018-04-16T07:07:58.304Z,13.80
2018-04-16T07:08:58.340Z,13.80
2018-04-16T07:09:58.376Z,11.30
2018-04-16T07:10:58.415Z,11.80
2018-04-16T07:11:58.452Z,11.40
2018-04-16T07:12:58.491Z,11.40
2018-04-16T07:13:58.539Z,11.90
2018-04-16T07:14:58.567Z,12.50
2018-04-16T07:15:58.654Z,10.70
2018-04-16T07:16:58.644Z,9.90
2018-04-16T07:17:58.693Z,10.50
2018-04-16T07:18:58.721Z,10.20
2018-04-16T07:19:58.770Z,10.20
2018-04-16T07:20:58.800Z,10.10
2018-04-16T07:21:58.838Z,10.10
2018-04-16T07:22:58.877Z,11.60
2018-04-16T07:23:58.917Z,10.20
2018-04-16T07:24:58.953Z,11.40
2018-04-16T07:25:58.992Z,10.40
2018-04-16T07:26:59.034Z,12.20
2018-04-16T07:27:59.069Z,9.80
2018-04-16T07:28:59.109Z,9.80
2018-04-16T07:29:59.150Z,10.30
2018-04-16T07:30:59.186Z,10.70
2018-04-16T07:31:59.224Z,10.30
2018-04-16T07:32:59.264Z,11.40
2018-04-16T07:33:59.303Z,11.60
2018-04-16T07:34:59.351Z,10.00
2018-04-16T07:35:59.381Z,9.70
2018-04-16T07:36:59.421Z,10.10
2018-04-16T07:37:59.462Z,10.50
2018-04-16T07:38:59.499Z,10.80
2018-04-16T07:39:59.539Z,11.00
2018-04-16T07:40:59.583Z,13.70
2018-04-16T07:41:59.628Z,11.10
2018-04-16T07:42:59.659Z,11.50
2018-04-16T07:43:59.708Z,11.30
2018-04-16T07:44:59.738Z,11.30
2018-04-16T07:45:59.778Z,11.00
2018-04-16T07:46:59.822Z,11.30
2018-04-16T07:47:59.861Z,11.10
2018-04-16T07:48:59.976Z,12.00
2018-04-16T07:49:59.938Z,11.10
2018-04-16T07:50:59.977Z,12.10
2018-04-16T07:52:00.019Z,12.00
2018-04-16T07:53:00.066Z,12.00
2018-04-16T07:54:00.099Z,12.40
2018-04-16T07:55:00.136Z,14.40
2018-04-16T07:56:00.175Z,12.50
2018-04-16T07:57:00.216Z,13.60
2018-04-16T07:58:00.256Z,12.30
2018-04-16T07:59:00.308Z,12.60
2018-04-16T08:00:00.334Z,12.00
2018-04-16T08:01:00.373Z,12.20
2018-04-16T08:02:00.413Z,13.60
2018-04-16T08:03:00.452Z,13.10
2018-04-16T08:04:00.502Z,12.90
2018-04-16T08:05:00.534Z,13.40
2018-04-16T08:06:00.574Z,13.50
2018-04-16T08:07:00.613Z,13.60
2018-04-16T08:08:00.657Z,12.50
2018-04-16T08:09:00.693Z,12.60
2018-04-16T08:10:00.740Z,13.20
2018-04-16T08:11:00.772Z,12.40
2018-04-16T08:12:00.813Z,12.60
2018-04-16T08:13:00.852Z,12.80
2018-04-16T08:14:00.894Z,12.80
2018-04-16T08:15:00.941Z,13.50
2018-04-16T08:16:00.991Z,13.20
2018-04-16T08:17:01.013Z,14.00
2018-04-16T08:18:01.065Z,13.00
2018-04-16T08:19:01.092Z,14.30
2018-04-16T08:20:01.138Z,13.50
2018-04-16T08:21:01.178Z,12.90
2018-04-16T08:22:01.216Z,13.20
2018-04-16T08:23:01.257Z,14.20
2018-04-16T08:24:01.296Z,14.00
2018-04-16T08:25:01.336Z,12.70
2018-04-16T08:26:01.386Z,13.70
2018-04-16T08:27:01.430Z,13.90
2018-04-16T08:28:01.455Z,12.60
2018-04-16T08:29:01.503Z,12.50
2018-04-16T08:30:01.540Z,16.50
2018-04-16T08:31:01.576Z,13.90
2018-04-16T08:32:01.616Z,15.50
2018-04-16T08:33:01.656Z,13.90
2018-04-16T08:34:01.701Z,15.30
2018-04-16T08:35:01.737Z,13.80
2018-04-16T08:36:01.780Z,13.30
2018-04-16T08:37:01.819Z,14.20
2018-04-16T08:38:01.909Z,13.10
2018-04-16T08:39:01.899Z,12.80
2018-04-16T08:40:01.939Z,11.90
2018-04-16T08:41:01.981Z,12.40
2018-04-16T08:42:02.023Z,11.60
2018-04-16T08:43:02.062Z,11.80
2018-04-16T08:44:02.105Z,11.80
2018-04-16T08:45:02.150Z,11.10
2018-04-16T08:46:02.183Z,12.10
2018-04-16T08:47:02.223Z,11.70
2018-04-16T08:48:02.263Z,9.70
2018-04-16T08:49:02.316Z,10.20
2018-04-16T08:50:02.347Z,10.50
2018-04-16T08:51:02.385Z,8.40
2018-04-16T08:52:02.427Z,8.10
2018-04-16T08:53:02.469Z,8.00
2018-04-16T08:54:02.513Z,8.40
2018-04-16T08:55:02.549Z,8.00
2018-04-16T08:56:02.599Z,7.70
2018-04-16T08:57:02.633Z,7.90
2018-04-16T08:58:02.673Z,8.40
2018-04-16T08:59:02.713Z,9.00
2018-04-16T09:00:02.754Z,8.10
2018-04-16T09:01:02.796Z,7.50
2018-04-16T09:02:02.836Z,7.80
2018-04-16T09:03:02.879Z,8.10
2018-04-16T09:04:02.926Z,7.30
2018-04-16T09:05:02.960Z,7.60
2018-04-16T09:06:03.001Z,7.90
2018-04-16T09:07:03.041Z,7.50
2018-04-16T09:08:03.083Z,7.70
2018-04-16T09:09:03.125Z,9.90
2018-04-16T09:10:03.169Z,7.80
2018-04-16T09:11:03.211Z,7.60
2018-04-16T09:12:03.248Z,7.10
2018-04-16T09:13:03.291Z,7.00
2018-04-16T09:14:03.332Z,6.30
2018-04-16T09:15:03.376Z,5.40
2018-04-16T09:16:03.412Z,6.70
2018-04-16T09:17:03.454Z,8.20
2018-04-16T09:18:03.497Z,6.60
2018-04-16T09:19:03.540Z,7.20
2018-04-16T09:20:03.580Z,7.50
2018-04-16T09:21:03.622Z,7.20
2018-04-16T09:22:03.673Z,6.80
2018-04-16T09:23:03.711Z,6.60
2018-04-16T09:24:03.747Z,7.40
2018-04-16T09:25:03.789Z,6.00
2018-04-16T09:26:03.830Z,6.00
2018-04-16T09:27:03.871Z,6.30
2018-04-16T09:28:03.914Z,7.30
2018-04-16T09:29:03.964Z,7.80
2018-04-16T09:30:04.007Z,7.10
2018-04-16T09:31:04.045Z,7.50
2018-04-16T09:32:04.090Z,7.30
2018-04-16T09:33:04.160Z,7.70
2018-04-16T09:34:04.163Z,7.50
2018-04-16T09:35:04.203Z,8.00
2018-04-16T09:36:04.247Z,7.70
2018-04-16T09:37:04.289Z,6.60
2018-04-16T09:38:04.333Z,8.20
2018-04-16T09:39:04.372Z,6.30
2018-04-16T09:40:04.426Z,7.70
2018-04-16T09:41:04.556Z,8.60
2018-04-16T09:42:04.499Z,8.40
2018-04-16T09:43:04.542Z,7.40
2018-04-16T09:44:04.583Z,8.00
2018-04-16T09:45:04.625Z,8.90
2018-04-16T09:46:04.667Z,8.40
2018-04-16T09:47:04.708Z,8.30
2018-04-16T09:48:04.758Z,9.90
2018-04-16T09:49:04.793Z,8.90
2018-04-16T09:50:04.834Z,9.10
2018-04-16T09:51:04.876Z,8.00
2018-04-16T09:52:04.919Z,8.40
2018-04-16T09:53:04.965Z,8.00
2018-04-16T09:54:05.003Z,7.70
2018-04-16T09:55:05.043Z,9.10
2018-04-16T09:56:05.084Z,7.60
2018-04-16T09:57:05.127Z,7.60
2018-04-16T09:58:05.172Z,8.70
2018-04-16T09:59:05.209Z,9.70
2018-04-16T10:00:05.252Z,9.10
2018-04-16T10:01:05.294Z,8.90
2018-04-16T10:02:05.336Z,8.90
2018-04-16T10:03:05.377Z,8.90
2018-04-16T10:04:05.420Z,8.70
2018-04-16T10:05:05.465Z,9.00
2018-04-16T10:06:05.533Z,9.50
2018-04-16T10:07:05.548Z,10.40
2018-04-16T10:08:05.591Z,9.00
2018-04-16T10:09:05.630Z,8.80
2018-04-16T10:10:05.672Z,8.80
2018-04-16T10:11:05.714Z,10.10
2018-04-16T10:12:05.756Z,10.90
2018-04-16T10:13:05.798Z,11.30
2018-04-16T10:14:05.839Z,10.70
2018-04-16T10:15:05.880Z,10.00
2018-04-16T10:16:05.925Z,10.00
2018-04-16T10:17:05.967Z,8.40
2018-04-16T10:18:06.061Z,10.40
2018-04-16T10:19:06.049Z,10.40
2018-04-16T10:20:06.091Z,10.10
2018-04-16T10:21:06.133Z,10.20
2018-04-16T10:22:06.174Z,10.70
2018-04-16T10:23:06.218Z,10.40
2018-04-16T10:24:06.259Z,9.90
2018-04-16T10:25:06.299Z,9.20
2018-04-16T10:26:06.344Z,9.90
2018-04-16T10:27:06.383Z,11.30
2018-04-16T10:28:06.425Z,9.80
2018-04-16T10:29:06.467Z,9.90
2018-04-16T10:30:06.508Z,9.00
2018-04-16T10:31:06.554Z,9.70
2018-04-16T10:32:06.593Z,9.90
2018-04-16T10:33:06.633Z,10.50
2018-04-16T10:34:06.721Z,10.10
2018-04-16T10:35:06.718Z,9.40
2018-04-16T10:36:06.761Z,11.50
2018-04-16T10:37:06.803Z,9.90
2018-04-16T10:38:06.851Z,9.30
2018-04-16T10:39:06.887Z,9.90
2018-04-16T10:40:06.929Z,8.90
2018-04-16T10:41:07.010Z,8.70
2018-04-16T10:42:07.063Z,10.70
2018-04-16T10:43:07.053Z,10.70
2018-04-16T10:44:07.098Z,10.10
2018-04-16T10:45:07.145Z,9.40
2018-04-16T10:46:07.181Z,9.00
2018-04-16T10:47:07.229Z,8.90
2018-04-16T10:48:07.334Z,9.70
2018-04-16T10:49:07.309Z,8.30
2018-04-16T10:50:07.350Z,8.50
2018-04-16T10:51:07.392Z,9.10
2018-04-16T10:52:07.436Z,10.10
2018-04-16T10:53:07.478Z,13.10
2018-04-16T10:54:07.519Z,8.60
2018-04-16T10:55:07.569Z,10.00
2018-04-16T10:56:07.604Z,10.10
2018-04-16T10:57:07.646Z,10.20
2018-04-16T10:58:07.696Z,8.10
2018-04-16T10:59:07.735Z,8.20
2018-04-16T11:00:07.775Z,10.50
2018-04-16T11:01:07.818Z,9.80
2018-04-16T11:02:07.869Z,8.80
2018-04-16T11:03:07.908Z,8.60
2018-04-16T11:04:07.945Z,9.80
2018-04-16T11:05:07.989Z,8.10
2018-04-16T11:06:08.038Z,8.80
2018-04-16T11:07:08.071Z,8.00
2018-04-16T11:08:08.113Z,8.60
2018-04-16T11:09:08.160Z,9.30
2018-04-16T11:10:08.200Z,11.20
2018-04-16T11:11:08.242Z,8.80
2018-04-16T11:12:08.287Z,8.40
2018-04-16T11:13:08.356Z,7.40
2018-04-16T11:14:08.372Z,9.30
2018-04-16T11:15:08.414Z,8.00
2018-04-16T11:16:08.456Z,8.20
2018-04-16T11:17:08.498Z,9.00
2018-04-16T11:18:08.541Z,8.20
2018-04-16T11:19:08.598Z,7.80
2018-04-16T11:20:08.625Z,7.90
2018-04-16T11:21:08.670Z,8.30
2018-04-16T11:22:08.711Z,8.70
2018-04-16T11:23:08.755Z,7.60
2018-04-16T11:24:08.799Z,6.90
2018-04-16T11:25:08.840Z,7.10
2018-04-16T11:26:08.881Z,7.20
2018-04-16T11:27:08.925Z,7.40
2018-04-16T11:28:08.968Z,8.20
2018-04-16T11:29:09.008Z,7.20
2018-04-16T11:30:09.052Z,7.80
2018-04-16T11:31:09.094Z,8.10
2018-04-16T11:32:09.138Z,8.20
2018-04-16T11:33:09.182Z,8.50
2018-04-16T11:34:09.224Z,7.30
2018-04-16T11:35:09.264Z,7.60
2018-04-16T11:36:09.316Z,7.60
2018-04-16T11:37:09.356Z,6.60
2018-04-16T11:38:09.393Z,6.00
2018-04-16T11:39:09.447Z,8.80
2018-04-16T11:40:09.478Z,7.20
2018-04-16T11:41:09.521Z,6.20
2018-04-16T11:42:09.570Z,5.90
2018-04-16T11:43:09.607Z,6.50
2018-04-16T11:44:09.646Z,6.50
2018-04-16T11:45:09.691Z,5.40
2018-04-16T11:46:09.732Z,6.60
2018-04-16T11:47:09.773Z,8.70
2018-04-16T11:48:09.818Z,6.20
2018-04-16T11:49:09.860Z,4.10
2018-04-16T11:50:09.899Z,4.70
2018-04-16T11:51:09.943Z,4.80
2018-04-16T11:52:09.984Z,5.30
2018-04-16T11:53:10.032Z,4.20
2018-04-16T11:54:10.071Z,5.00
2018-04-16T11:55:10.112Z,4.90
2018-04-16T11:56:10.156Z,5.00
2018-04-16T11:57:10.196Z,5.00
2018-04-16T11:58:10.243Z,4.20
2018-04-16T11:59:10.288Z,5.90
2018-04-16T12:00:10.324Z,4.80
2018-04-16T12:01:10.368Z,4.50
2018-04-16T12:02:10.452Z,6.40
2018-04-16T12:03:10.452Z,4.40
2018-04-16T12:04:10.495Z,5.50
2018-04-16T12:05:10.542Z,5.00
2018-04-16T12:06:10.585Z,3.70
2018-04-16T12:07:10.622Z,4.50
2018-04-16T12:08:10.666Z,4.90
2018-04-16T12:09:10.709Z,5.20
2018-04-16T12:10:10.751Z,4.30
2018-04-16T12:11:10.807Z,3.80
2018-04-16T12:12:10.839Z,3.70
2018-04-16T12:13:10.879Z,4.10
2018-04-16T12:14:10.921Z,3.30
2018-04-16T12:15:10.961Z,5.30
2018-04-16T12:16:11.006Z,3.70
2018-04-16T12:17:11.050Z,4.40
2018-04-16T12:18:11.090Z,4.80
2018-04-16T12:19:11.133Z,3.90
2018-04-16T12:20:11.175Z,4.70
2018-04-16T12:21:11.218Z,3.90
2018-04-16T12:22:11.261Z,5.00
2018-04-16T12:23:11.303Z,5.10
2018-04-16T12:24:11.347Z,4.60
2018-04-16T12:25:11.391Z,3.80
2018-04-16T12:26:11.431Z,5.70
2018-04-16T12:27:11.477Z,5.40
2018-04-16T12:28:11.519Z,4.60
2018-04-16T12:29:11.562Z,5.00
2018-04-16T12:30:11.613Z,4.00
2018-04-16T12:31:11.646Z,4.00
2018-04-16T12:32:11.690Z,4.20
2018-04-16T12:33:11.740Z,4.10
2018-04-16T12:34:11.775Z,4.10
2018-04-16T12:35:11.818Z,4.60
2018-04-16T12:36:11.863Z,4.20
2018-04-16T12:37:11.908Z,5.90
2018-04-16T12:38:11.950Z,4.50
2018-04-16T12:39:12.044Z,5.10
2018-04-16T12:40:12.034Z,5.80
2018-04-16T12:41:12.080Z,5.90
2018-04-16T12:42:12.120Z,5.10
2018-04-16T12:43:12.167Z,5.80
2018-04-16T12:44:12.215Z,4.90
2018-04-16T12:45:12.253Z,5.70
2018-04-16T12:46:12.308Z,5.50
2018-04-16T12:47:12.334Z,4.60
2018-04-16T12:48:12.499Z,4.60
2018-04-16T12:49:12.434Z,7.20
2018-04-16T12:50:12.464Z,4.40
2018-04-16T12:51:12.508Z,4.20
2018-04-16T12:52:12.561Z,4.40
2018-04-16T12:53:12.596Z,4.20
2018-04-16T12:54:12.639Z,4.30
2018-04-16T12:55:12.685Z,3.90
2018-04-16T12:56:12.732Z,4.70
2018-04-16T12:57:12.769Z,3.60
2018-04-16T12:58:12.814Z,3.70
2018-04-16T12:59:12.856Z,3.70
2018-04-16T13:00:12.899Z,4.30
2018-04-16T13:01:12.946Z,2.90
2018-04-16T13:02:12.989Z,3.40
2018-04-16T13:03:13.036Z,4.10
2018-04-16T13:04:13.083Z,5.00
2018-04-16T13:05:13.119Z,5.40
2018-04-16T13:06:13.161Z,3.50